Fairplay, Kentucky
Current Conditions -  °F | °C
As of 1:56 AM on Saturday 29 Nov 2014 (Local Time) from KEKQ Reporting Station
Clear Clear  
Wind Chill: 29°   Ceiling: Unl
Heat Index: 29°   Visibility: 10mi
Dew Point: 23°   Wind: 0mph
Humidity: 78%   Direction: NA
Pressure: 30.17"   Gusts: NA
Location:  37.05°N, 85.3°W
Report Text: KEKQ 290756Z AUTO 00000KT 10SM CLR M02/M05 A3017 RMK AO2 T10161050 SLP224
Loading
Personal Weather Stations






























Interactive Weather Map New forecast layout! Learn more

10-Day Weather Forecast

Advertisements
Track Severe Weather on mobile